createdAt,value
2017-09-28T00:01:27.152Z,16.30
2017-09-28T00:03:54.669Z,16.30
2017-09-28T00:06:22.201Z,16.20
2017-09-28T00:08:50.472Z,16.20
2017-09-28T00:11:18.762Z,16.20
2017-09-28T00:13:46.284Z,16.20
2017-09-28T00:16:13.780Z,16.20
2017-09-28T00:18:41.312Z,16.20
2017-09-28T00:21:09.581Z,16.20
2017-09-28T00:23:37.109Z,16.20
2017-09-28T00:26:04.616Z,16.10
2017-09-28T00:28:32.900Z,16.00
2017-09-28T00:31:00.415Z,16.00
2017-09-28T00:33:27.934Z,16.00
2017-09-28T00:35:55.470Z,16.00
2017-09-28T00:38:23.735Z,15.90
2017-09-28T00:40:52.020Z,15.90
2017-09-28T00:43:20.288Z,15.90
2017-09-28T00:45:48.578Z,15.90
2017-09-28T00:48:16.086Z,15.90
2017-09-28T00:50:43.636Z,15.90
2017-09-28T00:53:11.135Z,15.90
2017-09-28T00:55:39.448Z,15.90
2017-09-28T00:58:06.983Z,15.90
2017-09-28T01:00:34.508Z,15.90
2017-09-28T01:03:02.025Z,15.80
2017-09-28T01:05:29.559Z,15.80
2017-09-28T01:07:57.060Z,15.70
2017-09-28T01:10:24.585Z,15.70
2017-09-28T01:12:52.104Z,15.60
2017-09-28T01:15:19.634Z,15.50
2017-09-28T01:17:47.141Z,15.50
2017-09-28T01:20:15.432Z,15.50
2017-09-28T01:22:42.948Z,15.40
2017-09-28T01:25:10.437Z,15.50
2017-09-28T01:27:37.965Z,15.40
2017-09-28T01:30:05.473Z,15.40
2017-09-28T01:32:32.996Z,15.30
2017-09-28T01:35:01.276Z,15.30
2017-09-28T01:37:29.569Z,15.40
2017-09-28T01:39:57.076Z,15.40
2017-09-28T01:42:24.598Z,15.50
2017-09-28T01:44:52.227Z,15.50
2017-09-28T01:47:20.487Z,15.60
2017-09-28T01:49:47.977Z,15.60
2017-09-28T01:52:15.504Z,15.60
2017-09-28T01:54:43.809Z,15.70
2017-09-28T01:57:11.300Z,15.70
2017-09-28T01:59:38.824Z,15.70
2017-09-28T02:02:06.342Z,15.70
2017-09-28T02:04:33.875Z,15.70
2017-09-28T02:07:01.381Z,15.60
2017-09-28T02:09:29.646Z,15.50
2017-09-28T02:11:57.192Z,15.50
2017-09-28T02:14:24.686Z,15.50
2017-09-28T02:16:52.239Z,15.50
2017-09-28T02:19:19.742Z,15.40
2017-09-28T02:21:47.280Z,15.50
2017-09-28T02:24:14.793Z,15.40
2017-09-28T02:26:43.063Z,15.50
2017-09-28T02:29:11.360Z,15.50
2017-09-28T02:31:38.857Z,15.40
2017-09-28T02:34:06.385Z,15.50
2017-09-28T02:36:33.909Z,15.50
2017-09-28T02:39:02.173Z,15.40
2017-09-28T02:41:29.690Z,15.40
2017-09-28T02:43:57.197Z,15.40
2017-09-28T02:46:24.731Z,15.30
2017-09-28T02:48:52.238Z,15.30
2017-09-28T02:51:19.762Z,15.30
2017-09-28T02:53:47.268Z,15.30
2017-09-28T02:56:14.778Z,15.30
2017-09-28T02:58:42.304Z,15.30
2017-09-28T03:01:09.801Z,15.30
2017-09-28T03:03:38.096Z,15.40
2017-09-28T03:06:05.597Z,15.30
2017-09-28T03:08:33.094Z,15.40
2017-09-28T03:11:01.393Z,15.40
2017-09-28T03:13:28.892Z,15.40
2017-09-28T03:15:56.387Z,15.40
2017-09-28T03:18:24.684Z,15.40
2017-09-28T03:20:52.184Z,15.30
2017-09-28T03:23:19.701Z,15.40
2017-09-28T03:25:47.204Z,15.30
2017-09-28T03:28:14.733Z,15.30
2017-09-28T03:30:42.230Z,15.30
2017-09-28T03:33:09.766Z,15.30
2017-09-28T03:35:37.293Z,15.20
2017-09-28T03:38:04.803Z,15.30
2017-09-28T03:40:33.844Z,15.20
2017-09-28T03:43:01.342Z,15.30
2017-09-28T03:45:28.868Z,15.30
2017-09-28T03:47:56.371Z,15.20
2017-09-28T03:50:23.896Z,15.20
2017-09-28T03:52:51.408Z,15.20
2017-09-28T03:55:19.667Z,15.20
2017-09-28T03:57:47.965Z,15.20
2017-09-28T04:00:15.487Z,15.20
2017-09-28T04:02:42.976Z,15.20
2017-09-28T04:05:10.492Z,15.20
2017-09-28T04:07:38.055Z,15.20
2017-09-28T04:10:05.600Z,15.20
2017-09-28T04:12:33.113Z,15.20
2017-09-28T04:15:00.643Z,15.20
2017-09-28T04:17:28.908Z,15.20
2017-09-28T04:19:56.428Z,15.10
2017-09-28T04:22:23.933Z,15.20
2017-09-28T04:24:51.445Z,15.20
2017-09-28T04:27:18.972Z,15.20
2017-09-28T04:29:47.251Z,15.10
2017-09-28T04:32:14.768Z,15.10
2017-09-28T04:34:42.272Z,15.10
2017-09-28T04:37:09.782Z,15.10
2017-09-28T04:39:37.294Z,15.10
2017-09-28T04:42:04.839Z,15.10
2017-09-28T04:44:32.348Z,15.10
2017-09-28T04:46:59.857Z,15.00
2017-09-28T04:49:27.389Z,15.00
2017-09-28T04:51:55.680Z,15.00
2017-09-28T04:54:23.988Z,14.90
2017-09-28T04:56:51.486Z,14.90
2017-09-28T04:59:19.028Z,14.90
2017-09-28T05:01:46.536Z,14.90
2017-09-28T05:04:14.076Z,14.90
2017-09-28T05:06:42.350Z,14.80
2017-09-28T05:09:10.618Z,14.80
2017-09-28T05:11:38.162Z,14.80
2017-09-28T05:14:05.671Z,14.80
2017-09-28T05:16:33.206Z,14.80
2017-09-28T05:19:01.474Z,14.80
2017-09-28T05:21:29.736Z,14.80
2017-09-28T05:23:57.264Z,14.80
2017-09-28T05:26:24.763Z,14.90
2017-09-28T05:28:53.071Z,14.90
2017-09-28T05:31:20.564Z,14.90
2017-09-28T05:33:48.089Z,14.90
2017-09-28T05:36:15.587Z,14.90
2017-09-28T05:38:43.125Z,14.90
2017-09-28T05:41:10.640Z,14.90
2017-09-28T05:43:38.920Z,14.90
2017-09-28T05:46:06.714Z,14.90
2017-09-28T05:48:34.223Z,14.90
2017-09-28T05:51:02.517Z,14.90
2017-09-28T05:53:30.027Z,14.90
2017-09-28T05:55:57.554Z,14.90
2017-09-28T05:58:25.052Z,14.90
2017-09-28T06:00:52.593Z,14.90
2017-09-28T06:03:20.096Z,15.00
2017-09-28T06:05:48.370Z,15.00
2017-09-28T06:08:16.691Z,15.00
2017-09-28T06:10:44.198Z,15.00
2017-09-28T06:13:12.457Z,15.00
2017-09-28T06:15:41.504Z,15.10
2017-09-28T06:18:09.012Z,15.10
2017-09-28T06:20:36.538Z,15.10
2017-09-28T06:23:04.069Z,15.20
2017-09-28T06:25:31.600Z,15.20
2017-09-28T06:27:59.865Z,15.20
2017-09-28T06:30:28.172Z,15.30
2017-09-28T06:32:55.682Z,15.30
2017-09-28T06:35:24.710Z,15.30
2017-09-28T06:37:52.997Z,15.30
2017-09-28T06:40:20.541Z,15.30
2017-09-28T06:42:48.827Z,15.40
2017-09-28T06:45:16.365Z,15.40
2017-09-28T06:47:44.637Z,15.40
2017-09-28T06:50:12.923Z,15.40
2017-09-28T06:52:40.437Z,15.40
2017-09-28T06:55:07.965Z,15.50
2017-09-28T06:57:35.465Z,15.50
2017-09-28T07:00:02.993Z,15.50
2017-09-28T07:02:30.496Z,15.60
2017-09-28T07:04:58.782Z,15.70
2017-09-28T07:07:27.069Z,15.80
2017-09-28T07:09:54.568Z,15.80
2017-09-28T07:12:22.092Z,15.80
2017-09-28T07:14:49.603Z,15.80
2017-09-28T07:17:17.124Z,15.80
2017-09-28T07:19:44.632Z,15.90
2017-09-28T07:22:12.956Z,16.10
2017-09-28T07:24:40.466Z,16.00
2017-09-28T07:27:07.979Z,16.10
2017-09-28T07:29:35.493Z,16.20
2017-09-28T07:32:03.764Z,16.20
2017-09-28T07:34:32.093Z,16.20
2017-09-28T07:36:59.607Z,16.30
2017-09-28T07:39:27.902Z,16.50
2017-09-28T07:41:55.403Z,16.50
2017-09-28T07:44:22.916Z,16.60
2017-09-28T07:46:50.440Z,16.60
2017-09-28T07:49:17.938Z,16.60
2017-09-28T07:51:45.473Z,16.70
2017-09-28T07:54:13.033Z,16.70
2017-09-28T07:56:40.540Z,16.80
2017-09-28T07:59:08.065Z,16.90
2017-09-28T08:01:35.556Z,17.00
2017-09-28T08:04:03.085Z,17.10
2017-09-28T08:06:30.582Z,17.10
2017-09-28T08:08:58.125Z,17.20
2017-09-28T08:11:25.636Z,17.40
2017-09-28T08:13:53.203Z,17.40
2017-09-28T08:16:20.696Z,17.60
2017-09-28T08:18:48.192Z,17.70
2017-09-28T08:21:16.488Z,17.80
2017-09-28T08:23:43.997Z,17.80
2017-09-28T08:26:11.537Z,17.90
2017-09-28T08:28:39.043Z,18.00
2017-09-28T08:31:07.316Z,18.10
2017-09-28T08:33:34.855Z,18.10
2017-09-28T08:36:02.376Z,18.10
2017-09-28T08:38:29.887Z,18.10
2017-09-28T08:40:58.188Z,18.20
2017-09-28T08:43:25.705Z,18.20
2017-09-28T08:45:53.209Z,18.30
2017-09-28T08:48:20.771Z,18.40
2017-09-28T08:50:48.270Z,18.50
2017-09-28T08:53:15.812Z,18.50
2017-09-28T08:55:43.318Z,18.60
2017-09-28T08:58:11.583Z,18.80
2017-09-28T09:00:39.126Z,18.80
2017-09-28T09:03:07.196Z,18.90
2017-09-28T09:05:34.749Z,18.90
2017-09-28T09:08:02.253Z,18.90
2017-09-28T09:10:29.801Z,18.90
2017-09-28T09:12:58.060Z,19.00
2017-09-28T09:15:26.324Z,19.00
2017-09-28T09:17:53.931Z,19.00
2017-09-28T09:20:21.428Z,19.00
2017-09-28T09:22:49.725Z,19.00
2017-09-28T09:25:18.001Z,19.00
2017-09-28T09:27:46.320Z,19.10
2017-09-28T09:30:14.549Z,19.10
2017-09-28T09:32:42.049Z,19.20
2017-09-28T09:35:09.581Z,19.30
2017-09-28T09:37:37.881Z,19.50
2017-09-28T09:40:05.387Z,19.50
2017-09-28T09:42:32.889Z,19.70
2017-09-28T09:45:00.413Z,20.00
2017-09-28T09:47:28.689Z,20.30
2017-09-28T09:49:56.980Z,20.40
2017-09-28T09:52:25.251Z,20.50
2017-09-28T09:54:53.557Z,20.60
2017-09-28T09:57:21.161Z,20.60
2017-09-28T09:59:48.709Z,20.80
2017-09-28T10:02:16.208Z,20.90
2017-09-28T10:04:44.469Z,20.90
2017-09-28T10:07:16.412Z,20.90
2017-09-28T10:09:49.659Z,20.90
2017-09-28T10:12:27.057Z,20.90
2017-09-28T10:15:02.844Z,20.90
2017-09-28T10:17:30.366Z,20.80
2017-09-28T10:19:57.903Z,20.80
2017-09-28T10:22:25.417Z,20.80
2017-09-28T10:24:52.929Z,20.70
2017-09-28T10:27:20.465Z,20.60
2017-09-28T10:29:47.968Z,20.60
2017-09-28T10:32:15.488Z,20.60
2017-09-28T10:34:42.997Z,20.50
2017-09-28T10:37:10.552Z,20.60
2017-09-28T10:39:38.078Z,20.60
2017-09-28T10:42:05.902Z,20.60
2017-09-28T10:44:33.453Z,20.60
2017-09-28T10:47:00.984Z,20.70
2017-09-28T10:49:28.496Z,20.80
2017-09-28T10:51:56.039Z,20.90
2017-09-28T10:54:24.374Z,21.00
2017-09-28T10:56:51.889Z,21.00
2017-09-28T10:59:19.428Z,21.10
2017-09-28T11:01:47.720Z,21.10
2017-09-28T11:04:15.253Z,21.10
2017-09-28T11:06:43.552Z,21.20
2017-09-28T11:09:11.052Z,21.20
2017-09-28T11:11:38.593Z,21.20
2017-09-28T11:14:06.090Z,21.20
2017-09-28T11:16:33.609Z,21.30
2017-09-28T11:19:01.137Z,21.40
2017-09-28T11:21:28.647Z,21.50
2017-09-28T11:23:56.189Z,21.70
2017-09-28T11:26:23.811Z,21.90
2017-09-28T11:28:51.341Z,21.90
2017-09-28T11:31:18.856Z,22.10
2017-09-28T11:33:46.378Z,22.20
2017-09-28T11:36:14.711Z,22.60
2017-09-28T11:38:42.232Z,22.60
2017-09-28T11:41:09.782Z,22.70
2017-09-28T11:43:37.349Z,22.90
2017-09-28T11:46:04.855Z,23.00
2017-09-28T11:48:32.352Z,23.00
2017-09-28T11:50:59.861Z,23.10
2017-09-28T11:53:27.359Z,23.30
2017-09-28T11:55:55.665Z,23.80
2017-09-28T11:58:23.149Z,23.70
2017-09-28T12:00:50.640Z,23.90
2017-09-28T12:03:18.921Z,24.20
2017-09-28T12:05:47.214Z,24.40
2017-09-28T12:08:14.725Z,24.40
2017-09-28T12:10:42.239Z,24.80
2017-09-28T12:13:09.777Z,25.20
2017-09-28T12:15:38.040Z,25.40
2017-09-28T12:18:05.588Z,25.30
2017-09-28T12:20:33.079Z,25.40
2017-09-28T12:23:00.609Z,25.40
2017-09-28T12:25:28.906Z,25.60
2017-09-28T12:27:56.402Z,25.60
2017-09-28T12:30:23.925Z,25.70
2017-09-28T12:32:51.411Z,25.90
2017-09-28T12:35:18.924Z,26.00
2017-09-28T12:37:47.196Z,26.00
2017-09-28T12:40:15.481Z,26.00
2017-09-28T12:42:44.148Z,26.00
2017-09-28T12:45:12.412Z,26.30
2017-09-28T12:47:39.924Z,26.30
2017-09-28T12:50:07.416Z,26.40
2017-09-28T12:52:34.942Z,26.60
2017-09-28T12:55:02.465Z,26.70
2017-09-28T12:57:30.721Z,27.10
2017-09-28T12:59:58.241Z,27.10
2017-09-28T13:02:25.739Z,27.30
2017-09-28T13:04:53.257Z,27.50
2017-09-28T13:07:20.799Z,27.80
2017-09-28T13:09:48.332Z,27.90
2017-09-28T13:12:16.605Z,28.20
2017-09-28T13:14:44.856Z,28.30
2017-09-28T13:17:12.370Z,28.30
2017-09-28T13:19:39.861Z,28.30
2017-09-28T13:22:07.393Z,28.30
2017-09-28T13:24:34.887Z,28.20
2017-09-28T13:27:02.401Z,28.30
2017-09-28T13:29:29.921Z,28.30
2017-09-28T13:31:58.196Z,27.60
2017-09-28T13:34:26.460Z,27.40
2017-09-28T13:36:53.985Z,27.40
2017-09-28T13:39:21.484Z,27.60
2017-09-28T13:41:49.789Z,27.80
2017-09-28T13:44:17.308Z,27.80
2017-09-28T13:46:45.568Z,28.30
2017-09-28T13:49:13.107Z,28.30
2017-09-28T13:51:40.611Z,28.60
2017-09-28T13:54:08.154Z,28.80
2017-09-28T13:56:35.644Z,29.00
2017-09-28T13:59:03.182Z,29.10
2017-09-28T14:01:31.463Z,28.70
2017-09-28T14:03:58.985Z,28.70
2017-09-28T14:06:26.500Z,28.60
2017-09-28T14:08:54.005Z,28.40
2017-09-28T14:11:21.525Z,28.30
2017-09-28T14:13:49.021Z,28.30
2017-09-28T14:16:16.541Z,28.10
2017-09-28T14:18:44.074Z,28.10
2017-09-28T14:21:11.562Z,28.00
2017-09-28T14:23:39.100Z,28.00
2017-09-28T14:26:06.629Z,28.00
2017-09-28T14:28:34.915Z,27.70
2017-09-28T14:31:02.427Z,27.70
2017-09-28T14:33:29.953Z,27.60
2017-09-28T14:35:57.469Z,27.60
2017-09-28T14:38:25.762Z,27.40
2017-09-28T14:40:54.026Z,27.40
2017-09-28T14:43:22.303Z,27.50
2017-09-28T14:45:50.609Z,27.30
2017-09-28T14:48:18.121Z,27.30
2017-09-28T14:50:45.644Z,27.30
2017-09-28T14:53:13.166Z,27.40
2017-09-28T14:55:40.708Z,27.40
2017-09-28T14:58:08.974Z,26.90
2017-09-28T15:00:36.487Z,26.90
2017-09-28T15:03:04.000Z,26.90
2017-09-28T15:05:32.270Z,26.80
2017-09-28T15:08:00.575Z,26.60
2017-09-28T15:10:28.080Z,26.60
2017-09-28T15:12:55.613Z,26.50
2017-09-28T15:15:23.136Z,26.30
2017-09-28T15:17:50.681Z,26.10
2017-09-28T15:20:18.949Z,25.80
2017-09-28T15:22:47.248Z,25.70
2017-09-28T15:25:14.777Z,25.70
2017-09-28T15:27:42.270Z,25.60
2017-09-28T15:30:09.855Z,25.50
2017-09-28T15:32:37.353Z,25.40
2017-09-28T15:35:04.877Z,25.20
2017-09-28T15:37:32.420Z,25.10
2017-09-28T15:39:59.908Z,25.00
2017-09-28T15:42:27.474Z,24.90
2017-09-28T15:44:54.993Z,24.80
2017-09-28T15:47:22.528Z,24.70
2017-09-28T15:49:50.036Z,24.60
2017-09-28T15:52:17.657Z,24.50
2017-09-28T15:54:45.176Z,24.40
2017-09-28T15:57:13.460Z,24.30
2017-09-28T15:59:41.772Z,24.30
2017-09-28T16:02:10.006Z,24.20
2017-09-28T16:04:38.284Z,24.20
2017-09-28T16:07:06.532Z,24.20
2017-09-28T16:09:34.066Z,24.20
2017-09-28T16:12:01.591Z,24.10
2017-09-28T16:14:29.099Z,24.10
2017-09-28T16:16:56.637Z,24.10
2017-09-28T16:19:24.202Z,24.10
2017-09-28T16:21:51.735Z,24.00
2017-09-28T16:24:19.250Z,24.00
2017-09-28T16:26:47.560Z,23.80
2017-09-28T16:29:15.074Z,23.80
2017-09-28T16:31:42.592Z,23.80
2017-09-28T16:34:10.119Z,23.70
2017-09-28T16:36:37.625Z,23.70
2017-09-28T16:39:05.158Z,23.60
2017-09-28T16:41:32.684Z,23.50
2017-09-28T16:44:00.956Z,23.40
2017-09-28T16:46:29.254Z,23.40
2017-09-28T16:48:56.761Z,23.30
2017-09-28T16:51:24.290Z,23.30
2017-09-28T16:53:51.842Z,23.30
2017-09-28T16:56:19.375Z,23.20
2017-09-28T16:58:46.875Z,23.20
2017-09-28T17:01:14.406Z,23.10
2017-09-28T17:03:41.923Z,23.10
2017-09-28T17:06:09.448Z,23.10
2017-09-28T17:08:36.984Z,23.00
2017-09-28T17:11:04.480Z,23.00
2017-09-28T17:13:32.053Z,22.90
2017-09-28T17:15:59.561Z,22.80
2017-09-28T17:18:27.110Z,22.70
2017-09-28T17:20:54.607Z,22.60
2017-09-28T17:23:22.117Z,22.50
2017-09-28T17:25:49.641Z,22.40
2017-09-28T17:28:17.134Z,22.30
2017-09-28T17:30:44.682Z,22.20
2017-09-28T17:33:12.191Z,22.20
2017-09-28T17:35:39.715Z,22.10
2017-09-28T17:38:07.238Z,22.00
2017-09-28T17:40:35.522Z,21.90
2017-09-28T17:43:03.828Z,21.90
2017-09-28T17:45:31.361Z,21.90
2017-09-28T17:47:59.638Z,21.70
2017-09-28T17:50:27.932Z,21.60
2017-09-28T17:52:55.453Z,21.60
2017-09-28T17:55:23.004Z,21.50
2017-09-28T17:57:51.297Z,21.30
2017-09-28T18:00:19.608Z,21.30
2017-09-28T18:02:47.158Z,21.20
2017-09-28T18:05:14.716Z,21.20
2017-09-28T18:07:42.218Z,21.10
2017-09-28T18:10:09.762Z,21.10
2017-09-28T18:12:37.284Z,21.00
2017-09-28T18:15:04.805Z,21.00
2017-09-28T18:17:33.220Z,20.90
2017-09-28T18:20:00.750Z,20.90
2017-09-28T18:22:28.280Z,20.80
2017-09-28T18:24:55.823Z,20.70
2017-09-28T18:27:23.328Z,20.60
2017-09-28T18:29:51.670Z,20.50
2017-09-28T18:32:19.184Z,20.50
2017-09-28T18:34:46.757Z,20.50
2017-09-28T18:37:14.266Z,20.40
2017-09-28T18:39:42.578Z,20.40
2017-09-28T18:42:10.072Z,20.40
2017-09-28T18:44:37.669Z,20.30
2017-09-28T18:47:05.204Z,20.30
2017-09-28T18:49:32.790Z,20.20
2017-09-28T18:52:01.082Z,20.10
2017-09-28T18:54:28.596Z,20.10
2017-09-28T18:56:56.137Z,20.10
2017-09-28T18:59:23.805Z,20.10
2017-09-28T19:01:52.191Z,20.00
2017-09-28T19:04:20.471Z,20.00
2017-09-28T19:06:48.016Z,19.90
2017-09-28T19:09:15.547Z,19.90
2017-09-28T19:11:43.126Z,19.90
2017-09-28T19:14:10.639Z,19.80
2017-09-28T19:16:38.938Z,19.80
2017-09-28T19:19:06.574Z,19.80
2017-09-28T19:21:35.121Z,19.70
2017-09-28T19:24:02.646Z,19.80
2017-09-28T19:26:30.170Z,19.70
2017-09-28T19:28:58.486Z,19.70
2017-09-28T19:31:26.022Z,19.70
2017-09-28T19:33:53.611Z,19.60
2017-09-28T19:36:22.016Z,19.60
2017-09-28T19:38:49.600Z,19.60
2017-09-28T19:41:17.135Z,19.50
2017-09-28T19:43:44.670Z,19.50
2017-09-28T19:46:12.202Z,19.50
2017-09-28T19:48:39.729Z,19.50
2017-09-28T19:51:08.093Z,19.40
2017-09-28T19:53:36.389Z,19.40
2017-09-28T19:56:03.936Z,19.40
2017-09-28T19:58:31.473Z,19.40
2017-09-28T20:00:58.987Z,19.40
2017-09-28T20:03:26.524Z,19.40
2017-09-28T20:05:54.044Z,19.40
2017-09-28T20:08:21.569Z,19.30
2017-09-28T20:10:49.086Z,19.30
2017-09-28T20:13:17.416Z,19.30
2017-09-28T20:15:44.965Z,19.30
2017-09-28T20:18:12.490Z,19.20
2017-09-28T20:20:40.029Z,19.20
2017-09-28T20:23:08.301Z,19.20
2017-09-28T20:25:36.627Z,19.20
2017-09-28T20:28:04.143Z,19.20
2017-09-28T20:30:32.436Z,19.10
2017-09-28T20:32:59.937Z,19.10
2017-09-28T20:35:27.502Z,19.10
2017-09-28T20:37:55.006Z,19.10
2017-09-28T20:40:22.515Z,19.10
2017-09-28T20:42:50.041Z,19.10
2017-09-28T20:45:19.308Z,19.10
2017-09-28T20:47:47.612Z,19.10
2017-09-28T20:50:15.156Z,19.00
2017-09-28T20:52:42.682Z,19.10
2017-09-28T20:55:11.005Z,19.10
2017-09-28T20:57:38.545Z,19.10
2017-09-28T21:00:06.062Z,19.10
2017-09-28T21:02:33.581Z,19.20
2017-09-28T21:05:01.106Z,19.10
2017-09-28T21:07:29.442Z,19.10
2017-09-28T21:09:56.982Z,19.10
2017-09-28T21:12:24.598Z,19.10
2017-09-28T21:14:52.910Z,19.00
2017-09-28T21:17:20.456Z,19.10
2017-09-28T21:19:47.974Z,19.00
2017-09-28T21:22:15.502Z,19.00
2017-09-28T21:24:43.003Z,19.00
2017-09-28T21:27:11.273Z,19.00
2017-09-28T21:29:39.592Z,18.90
2017-09-28T21:32:07.107Z,18.90
2017-09-28T21:34:35.400Z,18.90
2017-09-28T21:37:02.918Z,18.90
2017-09-28T21:39:30.465Z,18.90
2017-09-28T21:41:57.994Z,18.80
2017-09-28T21:44:25.533Z,18.90
2017-09-28T21:46:53.041Z,18.80
2017-09-28T21:49:20.558Z,18.70
2017-09-28T21:51:48.092Z,18.70
2017-09-28T21:54:16.360Z,18.60
2017-09-28T21:56:44.675Z,18.60
2017-09-28T21:59:12.202Z,18.60
2017-09-28T22:01:39.748Z,18.60
2017-09-28T22:04:08.044Z,18.50
2017-09-28T22:06:35.598Z,18.50
2017-09-28T22:09:03.872Z,18.40
2017-09-28T22:11:32.153Z,18.40
2017-09-28T22:13:59.697Z,18.40
2017-09-28T22:16:27.960Z,18.30
2017-09-28T22:18:55.489Z,18.30
2017-09-28T22:21:23.021Z,18.30
2017-09-28T22:23:50.545Z,18.30
2017-09-28T22:26:18.862Z,18.20
2017-09-28T22:28:46.394Z,18.20
2017-09-28T22:31:13.925Z,18.20
2017-09-28T22:33:41.434Z,18.20
2017-09-28T22:36:08.972Z,18.20
2017-09-28T22:38:36.511Z,18.10
2017-09-28T22:41:04.777Z,18.10
2017-09-28T22:43:32.336Z,18.10
2017-09-28T22:46:00.615Z,18.10
2017-09-28T22:48:28.894Z,18.00
2017-09-28T22:50:57.237Z,18.00
2017-09-28T22:53:24.746Z,18.00
2017-09-28T22:55:52.324Z,18.00
2017-09-28T22:58:19.832Z,18.00
2017-09-28T23:00:47.380Z,17.90
2017-09-28T23:03:15.666Z,17.90
2017-09-28T23:05:43.181Z,17.90
2017-09-28T23:08:10.735Z,17.90
2017-09-28T23:10:38.234Z,18.00
2017-09-28T23:13:05.733Z,18.00
2017-09-28T23:15:33.264Z,18.00
2017-09-28T23:18:01.541Z,18.00
2017-09-28T23:20:29.839Z,18.00
2017-09-28T23:22:57.349Z,18.00
2017-09-28T23:25:26.481Z,17.90
2017-09-28T23:27:54.745Z,17.90
2017-09-28T23:30:23.046Z,17.90
2017-09-28T23:32:50.569Z,17.90
2017-09-28T23:35:18.088Z,17.90
2017-09-28T23:37:45.627Z,17.90
2017-09-28T23:40:13.129Z,17.90
2017-09-28T23:42:40.644Z,17.90
2017-09-28T23:45:08.160Z,17.90
2017-09-28T23:47:36.488Z,17.80
2017-09-28T23:50:03.992Z,17.80
2017-09-28T23:52:31.498Z,17.80
2017-09-28T23:54:59.048Z,17.80
2017-09-28T23:57:26.608Z,17.80
2017-09-28T23:59:54.122Z,17.90
